Terminal Aerodrome Forecast
Issued by NWS

Home | Current Version | Previous Version | Graphics & Text | Print | Product List | Glossary On
Versions: 1 2 3 4 5 6 7 8 9 10 11 12 13 14 15 16 17 18
000
FTUS43 KGRB 242006 AAA
TAFATW
TAF AMD
KATW 242006Z 2420/2518 27010G18KT P6SM SCT015 BKN025
     FM242100 27012G20KT P6SM SCT015 BKN030
     FM250200 28007KT P6SM FEW250=

USA.gov is the U.S. government's official web portal to all federal, state and local government web resources and services.